sensor_id;sensor_type;location;lat;lon;timestamp;P1;durP1;ratioP1;P2;durP2;ratioP2
23472;SDS011;11909;52.516;13.564;2024-01-15T00:00:08;16.48;;;10.27;;
23472;SDS011;11909;52.516;13.564;2024-01-15T00:02:37;14.85;;;10.05;;
23472;SDS011;11909;52.516;13.564;2024-01-15T00:05:05;14.15;;;9.63;;
23472;SDS011;11909;52.516;13.564;2024-01-15T00:07:34;14.63;;;10.00;;
23472;SDS011;11909;52.516;13.564;2024-01-15T00:10:02;12.68;;;9.25;;
23472;SDS011;11909;52.516;13.564;2024-01-15T00:12:31;14.95;;;9.57;;
23472;SDS011;11909;52.516;13.564;2024-01-15T00:14:58;16.40;;;10.60;;
23472;SDS011;11909;52.516;13.564;2024-01-15T00:17:28;14.43;;;9.77;;
23472;SDS011;11909;52.516;13.564;2024-01-15T00:19:56;11.68;;;8.63;;
23472;SDS011;11909;52.516;13.564;2024-01-15T00:22:24;13.73;;;9.02;;
23472;SDS011;11909;52.516;13.564;2024-01-15T00:24:52;14.02;;;10.07;;
23472;SDS011;11909;52.516;13.564;2024-01-15T00:27:21;13.60;;;9.77;;
23472;SDS011;11909;52.516;13.564;2024-01-15T00:29:50;15.50;;;10.20;;
23472;SDS011;11909;52.516;13.564;2024-01-15T00:32:18;14.77;;;9.93;;
23472;SDS011;11909;52.516;13.564;2024-01-15T00:34:47;20.13;;;10.65;;
23472;SDS011;11909;52.516;13.564;2024-01-15T00:37:16;17.55;;;9.93;;
23472;SDS011;11909;52.516;13.564;2024-01-15T00:39:43;15.25;;;9.95;;
23472;SDS011;11909;52.516;13.564;2024-01-15T00:42:12;14.25;;;8.95;;
23472;SDS011;11909;52.516;13.564;2024-01-15T00:44:40;14.18;;;9.60;;
23472;SDS011;11909;52.516;13.564;2024-01-15T00:47:09;13.93;;;9.32;;
23472;SDS011;11909;52.516;13.564;2024-01-15T00:49:37;14.80;;;9.48;;
23472;SDS011;11909;52.516;13.564;2024-01-15T00:52:06;16.98;;;9.95;;
23472;SDS011;11909;52.516;13.564;2024-01-15T00:54:34;17.70;;;9.77;;
23472;SDS011;11909;52.516;13.564;2024-01-15T00:57:03;15.70;;;9.63;;
23472;SDS011;11909;52.516;13.564;2024-01-15T00:59:31;15.40;;;9.48;;
23472;SDS011;11909;52.516;13.564;2024-01-15T01:01:59;15.77;;;10.00;;
23472;SDS011;11909;52.516;13.564;2024-01-15T01:04:27;16.55;;;9.98;;
23472;SDS011;11909;52.516;13.564;2024-01-15T01:06:55;17.42;;;9.13;;
23472;SDS011;11909;52.516;13.564;2024-01-15T01:09:24;12.07;;;9.02;;
23472;SDS011;11909;52.516;13.564;2024-01-15T01:11:55;15.10;;;9.57;;
23472;SDS011;11909;52.516;13.564;2024-01-15T01:14:23;16.35;;;9.18;;
23472;SDS011;11909;52.516;13.564;2024-01-15T01:16:51;14.32;;;9.70;;
23472;SDS011;11909;52.516;13.564;2024-01-15T01:19:19;15.70;;;9.23;;
23472;SDS011;11909;52.516;13.564;2024-01-15T01:21:47;14.23;;;9.20;;
23472;SDS011;11909;52.516;13.564;2024-01-15T01:24:17;15.60;;;9.32;;
23472;SDS011;11909;52.516;13.564;2024-01-15T01:26:46;17.30;;;10.27;;
23472;SDS011;11909;52.516;13.564;2024-01-15T01:29:15;18.27;;;10.75;;
23472;SDS011;11909;52.516;13.564;2024-01-15T01:31:43;18.33;;;10.35;;
23472;SDS011;11909;52.516;13.564;2024-01-15T01:34:13;14.45;;;9.45;;
23472;SDS011;11909;52.516;13.564;2024-01-15T01:36:42;16.05;;;9.75;;
23472;SDS011;11909;52.516;13.564;2024-01-15T01:39:11;16.55;;;9.45;;
23472;SDS011;11909;52.516;13.564;2024-01-15T01:41:38;16.90;;;9.70;;
23472;SDS011;11909;52.516;13.564;2024-01-15T01:44:08;16.65;;;10.07;;
23472;SDS011;11909;52.516;13.564;2024-01-15T01:46:36;14.65;;;9.60;;
23472;SDS011;11909;52.516;13.564;2024-01-15T01:49:07;15.05;;;9.35;;
23472;SDS011;11909;52.516;13.564;2024-01-15T01:51:36;15.95;;;10.13;;
23472;SDS011;11909;52.516;13.564;2024-01-15T01:54:06;18.10;;;9.48;;
23472;SDS011;11909;52.516;13.564;2024-01-15T01:56:38;15.10;;;9.05;;
23472;SDS011;11909;52.516;13.564;2024-01-15T01:59:06;15.35;;;9.30;;
23472;SDS011;11909;52.516;13.564;2024-01-15T02:01:37;14.38;;;8.77;;
23472;SDS011;11909;52.516;13.564;2024-01-15T02:04:06;15.20;;;9.07;;
23472;SDS011;11909;52.516;13.564;2024-01-15T02:06:34;15.80;;;9.82;;
23472;SDS011;11909;52.516;13.564;2024-01-15T02:09:02;15.65;;;9.63;;
23472;SDS011;11909;52.516;13.564;2024-01-15T02:11:31;14.82;;;9.57;;
23472;SDS011;11909;52.516;13.564;2024-01-15T02:13:59;16.80;;;9.90;;
23472;SDS011;11909;52.516;13.564;2024-01-15T02:16:30;17.90;;;10.60;;
23472;SDS011;11909;52.516;13.564;2024-01-15T02:18:58;16.40;;;9.17;;
23472;SDS011;11909;52.516;13.564;2024-01-15T02:21:26;18.70;;;10.15;;
23472;SDS011;11909;52.516;13.564;2024-01-15T02:23:56;14.80;;;9.40;;
23472;SDS011;11909;52.516;13.564;2024-01-15T02:26:25;16.60;;;10.05;;
23472;SDS011;11909;52.516;13.564;2024-01-15T02:28:53;15.75;;;9.75;;
23472;SDS011;11909;52.516;13.564;2024-01-15T02:31:21;15.52;;;9.73;;
23472;SDS011;11909;52.516;13.564;2024-01-15T02:33:49;16.38;;;9.52;;
23472;SDS011;11909;52.516;13.564;2024-01-15T02:36:18;15.02;;;9.25;;
23472;SDS011;11909;52.516;13.564;2024-01-15T02:38:46;17.05;;;8.38;;
23472;SDS011;11909;52.516;13.564;2024-01-15T02:41:15;14.70;;;7.65;;
23472;SDS011;11909;52.516;13.564;2024-01-15T02:43:43;16.02;;;9.00;;
23472;SDS011;11909;52.516;13.564;2024-01-15T02:46:11;15.45;;;7.97;;
23472;SDS011;11909;52.516;13.564;2024-01-15T02:48:38;14.13;;;7.85;;
23472;SDS011;11909;52.516;13.564;2024-01-15T02:51:06;15.52;;;8.25;;
23472;SDS011;11909;52.516;13.564;2024-01-15T02:53:35;13.15;;;7.30;;
23472;SDS011;11909;52.516;13.564;2024-01-15T02:56:03;12.65;;;8.15;;
23472;SDS011;11909;52.516;13.564;2024-01-15T02:58:33;11.60;;;6.82;;
23472;SDS011;11909;52.516;13.564;2024-01-15T03:01:01;11.40;;;7.22;;
23472;SDS011;11909;52.516;13.564;2024-01-15T03:03:29;15.68;;;7.07;;
23472;SDS011;11909;52.516;13.564;2024-01-15T03:05:59;11.23;;;7.60;;
23472;SDS011;11909;52.516;13.564;2024-01-15T03:08:29;12.27;;;7.05;;
23472;SDS011;11909;52.516;13.564;2024-01-15T03:10:56;14.00;;;7.63;;
23472;SDS011;11909;52.516;13.564;2024-01-15T03:13:25;11.73;;;7.25;;
23472;SDS011;11909;52.516;13.564;2024-01-15T03:15:54;11.43;;;7.78;;
23472;SDS011;11909;52.516;13.564;2024-01-15T03:18:23;11.95;;;7.32;;
23472;SDS011;11909;52.516;13.564;2024-01-15T03:20:51;12.88;;;7.60;;
23472;SDS011;11909;52.516;13.564;2024-01-15T03:23:19;14.63;;;7.38;;
23472;SDS011;11909;52.516;13.564;2024-01-15T03:25:46;12.98;;;6.65;;
23472;SDS011;11909;52.516;13.564;2024-01-15T03:28:15;13.80;;;7.30;;
23472;SDS011;11909;52.516;13.564;2024-01-15T03:30:43;14.00;;;7.20;;
23472;SDS011;11909;52.516;13.564;2024-01-15T03:33:13;12.18;;;7.03;;
23472;SDS011;11909;52.516;13.564;2024-01-15T03:35:41;10.52;;;6.93;;
23472;SDS011;11909;52.516;13.564;2024-01-15T03:38:08;13.90;;;6.85;;
23472;SDS011;11909;52.516;13.564;2024-01-15T03:40:36;14.80;;;7.57;;
23472;SDS011;11909;52.516;13.564;2024-01-15T03:43:04;12.98;;;7.25;;
23472;SDS011;11909;52.516;13.564;2024-01-15T03:45:32;16.48;;;7.20;;
23472;SDS011;11909;52.516;13.564;2024-01-15T03:48:00;13.88;;;7.13;;
23472;SDS011;11909;52.516;13.564;2024-01-15T03:50:29;10.85;;;6.13;;
23472;SDS011;11909;52.516;13.564;2024-01-15T03:52:57;15.35;;;6.40;;
23472;SDS011;11909;52.516;13.564;2024-01-15T03:55:25;13.18;;;6.95;;
23472;SDS011;11909;52.516;13.564;2024-01-15T03:57:53;11.43;;;6.63;;
23472;SDS011;11909;52.516;13.564;2024-01-15T04:00:22;13.02;;;6.53;;
23472;SDS011;11909;52.516;13.564;2024-01-15T04:02:50;11.20;;;6.03;;
23472;SDS011;11909;52.516;13.564;2024-01-15T04:05:18;9.63;;;5.55;;
23472;SDS011;11909;52.516;13.564;2024-01-15T04:07:47;12.40;;;6.13;;
23472;SDS011;11909;52.516;13.564;2024-01-15T04:10:15;11.17;;;6.07;;
23472;SDS011;11909;52.516;13.564;2024-01-15T04:12:43;13.73;;;6.43;;
23472;SDS011;11909;52.516;13.564;2024-01-15T04:15:12;14.20;;;5.75;;
23472;SDS011;11909;52.516;13.564;2024-01-15T04:17:40;14.15;;;6.35;;
23472;SDS011;11909;52.516;13.564;2024-01-15T04:20:09;11.10;;;6.13;;
23472;SDS011;11909;52.516;13.564;2024-01-15T04:22:37;13.82;;;5.40;;
23472;SDS011;11909;52.516;13.564;2024-01-15T04:25:07;8.90;;;5.22;;
23472;SDS011;11909;52.516;13.564;2024-01-15T04:27:35;10.05;;;4.47;;
23472;SDS011;11909;52.516;13.564;2024-01-15T04:30:03;13.43;;;5.68;;
23472;SDS011;11909;52.516;13.564;2024-01-15T04:32:32;13.93;;;5.63;;
23472;SDS011;11909;52.516;13.564;2024-01-15T04:35:00;9.45;;;5.07;;
23472;SDS011;11909;52.516;13.564;2024-01-15T04:37:28;14.57;;;5.60;;
23472;SDS011;11909;52.516;13.564;2024-01-15T04:39:56;8.25;;;4.90;;
23472;SDS011;11909;52.516;13.564;2024-01-15T04:42:25;10.95;;;5.47;;
23472;SDS011;11909;52.516;13.564;2024-01-15T04:44:53;8.48;;;4.70;;
23472;SDS011;11909;52.516;13.564;2024-01-15T04:47:21;10.45;;;5.35;;
23472;SDS011;11909;52.516;13.564;2024-01-15T04:49:49;13.45;;;4.75;;
23472;SDS011;11909;52.516;13.564;2024-01-15T04:52:17;8.73;;;4.68;;
23472;SDS011;11909;52.516;13.564;2024-01-15T04:54:45;8.52;;;3.88;;
23472;SDS011;11909;52.516;13.564;2024-01-15T04:57:13;9.27;;;4.07;;
23472;SDS011;11909;52.516;13.564;2024-01-15T04:59:42;9.68;;;4.15;;
23472;SDS011;11909;52.516;13.564;2024-01-15T05:02:10;11.30;;;3.95;;
23472;SDS011;11909;52.516;13.564;2024-01-15T05:04:38;10.07;;;4.45;;
23472;SDS011;11909;52.516;13.564;2024-01-15T05:07:06;14.00;;;4.35;;
23472;SDS011;11909;52.516;13.564;2024-01-15T05:09:35;12.35;;;3.80;;
23472;SDS011;11909;52.516;13.564;2024-01-15T05:12:03;7.15;;;3.40;;
23472;SDS011;11909;52.516;13.564;2024-01-15T05:14:31;7.75;;;3.65;;
23472;SDS011;11909;52.516;13.564;2024-01-15T05:17:01;9.80;;;3.83;;
23472;SDS011;11909;52.516;13.564;2024-01-15T05:19:29;8.43;;;3.30;;
23472;SDS011;11909;52.516;13.564;2024-01-15T05:21:57;13.73;;;3.65;;
23472;SDS011;11909;52.516;13.564;2024-01-15T05:24:24;6.63;;;3.10;;
23472;SDS011;11909;52.516;13.564;2024-01-15T05:26:53;11.30;;;3.35;;
23472;SDS011;11909;52.516;13.564;2024-01-15T05:29:21;9.85;;;3.20;;
23472;SDS011;11909;52.516;13.564;2024-01-15T05:31:49;10.45;;;3.17;;
23472;SDS011;11909;52.516;13.564;2024-01-15T05:34:18;12.45;;;3.22;;
23472;SDS011;11909;52.516;13.564;2024-01-15T05:36:47;6.05;;;2.80;;
23472;SDS011;11909;52.516;13.564;2024-01-15T05:39:15;7.60;;;3.53;;
23472;SDS011;11909;52.516;13.564;2024-01-15T05:41:44;7.82;;;2.22;;
23472;SDS011;11909;52.516;13.564;2024-01-15T05:44:12;5.32;;;2.97;;
23472;SDS011;11909;52.516;13.564;2024-01-15T05:46:40;10.70;;;3.53;;
23472;SDS011;11909;52.516;13.564;2024-01-15T05:49:07;11.45;;;3.28;;
23472;SDS011;11909;52.516;13.564;2024-01-15T05:51:37;8.57;;;3.20;;
23472;SDS011;11909;52.516;13.564;2024-01-15T05:54:05;8.37;;;3.10;;
23472;SDS011;11909;52.516;13.564;2024-01-15T05:56:33;10.85;;;3.13;;
23472;SDS011;11909;52.516;13.564;2024-01-15T05:59:01;5.93;;;2.45;;
23472;SDS011;11909;52.516;13.564;2024-01-15T06:01:28;8.68;;;2.55;;
23472;SDS011;11909;52.516;13.564;2024-01-15T06:03:57;8.35;;;2.95;;
23472;SDS011;11909;52.516;13.564;2024-01-15T06:06:25;10.40;;;2.83;;
23472;SDS011;11909;52.516;13.564;2024-01-15T06:08:54;7.65;;;2.83;;
23472;SDS011;11909;52.516;13.564;2024-01-15T06:11:22;9.00;;;2.83;;
23472;SDS011;11909;52.516;13.564;2024-01-15T06:13:50;10.93;;;3.15;;
23472;SDS011;11909;52.516;13.564;2024-01-15T06:16:18;13.10;;;3.03;;
23472;SDS011;11909;52.516;13.564;2024-01-15T06:18:46;8.02;;;3.08;;
23472;SDS011;11909;52.516;13.564;2024-01-15T06:21:15;9.43;;;3.15;;
23472;SDS011;11909;52.516;13.564;2024-01-15T06:23:43;8.35;;;2.88;;
23472;SDS011;11909;52.516;13.564;2024-01-15T06:26:12;8.82;;;3.30;;
23472;SDS011;11909;52.516;13.564;2024-01-15T06:28:40;12.30;;;3.58;;
23472;SDS011;11909;52.516;13.564;2024-01-15T06:31:08;4.63;;;2.40;;
23472;SDS011;11909;52.516;13.564;2024-01-15T06:33:37;8.82;;;3.38;;
23472;SDS011;11909;52.516;13.564;2024-01-15T06:36:05;10.45;;;2.92;;
23472;SDS011;11909;52.516;13.564;2024-01-15T06:38:34;7.57;;;1.98;;
23472;SDS011;11909;52.516;13.564;2024-01-15T06:41:01;8.10;;;2.22;;
23472;SDS011;11909;52.516;13.564;2024-01-15T06:43:31;11.73;;;2.53;;
23472;SDS011;11909;52.516;13.564;2024-01-15T06:45:59;9.75;;;2.33;;
23472;SDS011;11909;52.516;13.564;2024-01-15T06:48:32;7.55;;;2.55;;
23472;SDS011;11909;52.516;13.564;2024-01-15T06:51:00;6.95;;;1.90;;
23472;SDS011;11909;52.516;13.564;2024-01-15T06:53:28;8.02;;;2.40;;
23472;SDS011;11909;52.516;13.564;2024-01-15T06:55:56;8.20;;;2.25;;
23472;SDS011;11909;52.516;13.564;2024-01-15T06:58:24;15.93;;;3.13;;
23472;SDS011;11909;52.516;13.564;2024-01-15T07:00:53;7.72;;;2.28;;
23472;SDS011;11909;52.516;13.564;2024-01-15T07:03:22;7.03;;;2.28;;
23472;SDS011;11909;52.516;13.564;2024-01-15T07:05:49;14.02;;;2.97;;
23472;SDS011;11909;52.516;13.564;2024-01-15T07:08:17;7.85;;;2.70;;
23472;SDS011;11909;52.516;13.564;2024-01-15T07:10:45;5.75;;;2.15;;
23472;SDS011;11909;52.516;13.564;2024-01-15T07:13:14;9.55;;;2.42;;
23472;SDS011;11909;52.516;13.564;2024-01-15T07:15:42;8.35;;;2.00;;
23472;SDS011;11909;52.516;13.564;2024-01-15T07:18:11;9.32;;;2.05;;
23472;SDS011;11909;52.516;13.564;2024-01-15T07:20:39;9.60;;;2.10;;
23472;SDS011;11909;52.516;13.564;2024-01-15T07:23:07;5.20;;;2.05;;
23472;SDS011;11909;52.516;13.564;2024-01-15T07:25:35;5.10;;;1.95;;
23472;SDS011;11909;52.516;13.564;2024-01-15T07:28:03;8.77;;;2.20;;
23472;SDS011;11909;52.516;13.564;2024-01-15T07:30:31;11.30;;;2.55;;
23472;SDS011;11909;52.516;13.564;2024-01-15T07:32:59;7.03;;;2.58;;
23472;SDS011;11909;52.516;13.564;2024-01-15T07:35:29;10.80;;;2.67;;
23472;SDS011;11909;52.516;13.564;2024-01-15T07:37:57;11.70;;;2.40;;
23472;SDS011;11909;52.516;13.564;2024-01-15T07:40:25;8.43;;;2.13;;
23472;SDS011;11909;52.516;13.564;2024-01-15T07:42:53;11.02;;;2.40;;
23472;SDS011;11909;52.516;13.564;2024-01-15T07:45:21;8.18;;;2.42;;
23472;SDS011;11909;52.516;13.564;2024-01-15T07:47:49;10.35;;;2.50;;
23472;SDS011;11909;52.516;13.564;2024-01-15T07:50:17;8.90;;;2.40;;
23472;SDS011;11909;52.516;13.564;2024-01-15T07:52:46;11.20;;;1.80;;
23472;SDS011;11909;52.516;13.564;2024-01-15T07:55:15;6.78;;;2.55;;
23472;SDS011;11909;52.516;13.564;2024-01-15T07:57:43;18.60;;;2.25;;
23472;SDS011;11909;52.516;13.564;2024-01-15T08:00:21;10.10;;;2.40;;
23472;SDS011;11909;52.516;13.564;2024-01-15T08:02:49;9.57;;;2.15;;
23472;SDS011;11909;52.516;13.564;2024-01-15T08:05:17;11.77;;;2.35;;
23472;SDS011;11909;52.516;13.564;2024-01-15T08:07:46;10.43;;;2.33;;
23472;SDS011;11909;52.516;13.564;2024-01-15T08:10:14;16.07;;;3.23;;
23472;SDS011;11909;52.516;13.564;2024-01-15T08:12:43;14.88;;;2.70;;
23472;SDS011;11909;52.516;13.564;2024-01-15T08:15:11;14.32;;;3.00;;
23472;SDS011;11909;52.516;13.564;2024-01-15T08:17:38;9.60;;;2.25;;
23472;SDS011;11909;52.516;13.564;2024-01-15T08:20:07;10.88;;;2.58;;
23472;SDS011;11909;52.516;13.564;2024-01-15T08:22:38;11.60;;;2.90;;
23472;SDS011;11909;52.516;13.564;2024-01-15T08:25:07;12.90;;;2.83;;
23472;SDS011;11909;52.516;13.564;2024-01-15T08:27:36;10.10;;;2.17;;
23472;SDS011;11909;52.516;13.564;2024-01-15T08:30:04;10.82;;;2.42;;
23472;SDS011;11909;52.516;13.564;2024-01-15T08:32:33;13.50;;;3.08;;
23472;SDS011;11909;52.516;13.564;2024-01-15T08:35:03;14.30;;;2.10;;
23472;SDS011;11909;52.516;13.564;2024-01-15T08:37:31;12.80;;;2.63;;
23472;SDS011;11909;52.516;13.564;2024-01-15T08:39:59;8.55;;;2.10;;
23472;SDS011;11909;52.516;13.564;2024-01-15T08:42:28;8.15;;;2.58;;
23472;SDS011;11909;52.516;13.564;2024-01-15T08:44:56;10.93;;;2.47;;
23472;SDS011;11909;52.516;13.564;2024-01-15T08:47:24;12.00;;;2.03;;
23472;SDS011;11909;52.516;13.564;2024-01-15T08:49:52;6.93;;;2.60;;
23472;SDS011;11909;52.516;13.564;2024-01-15T08:52:20;8.27;;;2.50;;
23472;SDS011;11909;52.516;13.564;2024-01-15T08:54:48;9.55;;;2.50;;
23472;SDS011;11909;52.516;13.564;2024-01-15T08:57:16;6.50;;;2.05;;
23472;SDS011;11909;52.516;13.564;2024-01-15T08:59:46;10.07;;;2.00;;
23472;SDS011;11909;52.516;13.564;2024-01-15T09:02:14;7.65;;;2.33;;
23472;SDS011;11909;52.516;13.564;2024-01-15T09:04:42;16.55;;;2.97;;
23472;SDS011;11909;52.516;13.564;2024-01-15T09:07:10;6.95;;;2.60;;
23472;SDS011;11909;52.516;13.564;2024-01-15T09:09:38;11.00;;;2.63;;
23472;SDS011;11909;52.516;13.564;2024-01-15T09:12:06;14.27;;;2.40;;
23472;SDS011;11909;52.516;13.564;2024-01-15T09:14:34;9.35;;;2.28;;
23472;SDS011;11909;52.516;13.564;2024-01-15T09:17:05;12.88;;;3.08;;
23472;SDS011;11909;52.516;13.564;2024-01-15T09:19:32;9.10;;;2.30;;
23472;SDS011;11909;52.516;13.564;2024-01-15T09:22:01;11.40;;;3.33;;
23472;SDS011;11909;52.516;13.564;2024-01-15T09:24:29;13.35;;;2.67;;
23472;SDS011;11909;52.516;13.564;2024-01-15T09:26:57;11.82;;;3.92;;
23472;SDS011;11909;52.516;13.564;2024-01-15T09:29:25;13.05;;;2.53;;
23472;SDS011;11909;52.516;13.564;2024-01-15T09:31:53;12.68;;;2.55;;
23472;SDS011;11909;52.516;13.564;2024-01-15T09:34:22;6.30;;;2.22;;
23472;SDS011;11909;52.516;13.564;2024-01-15T09:36:50;9.50;;;2.53;;
23472;SDS011;11909;52.516;13.564;2024-01-15T09:39:18;10.00;;;2.42;;
23472;SDS011;11909;52.516;13.564;2024-01-15T09:41:46;9.77;;;3.17;;
23472;SDS011;11909;52.516;13.564;2024-01-15T09:44:15;9.50;;;2.53;;
23472;SDS011;11909;52.516;13.564;2024-01-15T09:46:44;10.93;;;2.42;;
23472;SDS011;11909;52.516;13.564;2024-01-15T09:49:16;7.55;;;2.50;;
23472;SDS011;11909;52.516;13.564;2024-01-15T09:51:46;12.18;;;2.33;;
23472;SDS011;11909;52.516;13.564;2024-01-15T09:54:28;8.90;;;2.33;;
23472;SDS011;11909;52.516;13.564;2024-01-15T09:56:56;8.18;;;2.28;;
23472;SDS011;11909;52.516;13.564;2024-01-15T09:59:24;11.18;;;2.92;;
23472;SDS011;11909;52.516;13.564;2024-01-15T10:04:22;5.32;;;1.73;;
23472;SDS011;11909;52.516;13.564;2024-01-15T10:06:52;5.60;;;2.08;;
23472;SDS011;11909;52.516;13.564;2024-01-15T10:09:21;4.88;;;1.67;;
23472;SDS011;11909;52.516;13.564;2024-01-15T10:11:49;6.10;;;1.95;;
23472;SDS011;11909;52.516;13.564;2024-01-15T10:14:17;13.93;;;2.58;;
23472;SDS011;11909;52.516;13.564;2024-01-15T10:16:46;8.32;;;2.47;;
23472;SDS011;11909;52.516;13.564;2024-01-15T10:19:14;9.60;;;2.20;;
23472;SDS011;11909;52.516;13.564;2024-01-15T10:21:42;7.50;;;2.28;;
23472;SDS011;11909;52.516;13.564;2024-01-15T10:24:12;8.50;;;1.95;;
23472;SDS011;11909;52.516;13.564;2024-01-15T10:26:39;6.57;;;2.28;;
23472;SDS011;11909;52.516;13.564;2024-01-15T10:29:07;5.40;;;2.08;;
23472;SDS011;11909;52.516;13.564;2024-01-15T10:31:37;6.13;;;2.20;;
23472;SDS011;11909;52.516;13.564;2024-01-15T10:34:11;6.28;;;2.00;;
23472;SDS011;11909;52.516;13.564;2024-01-15T10:36:45;6.88;;;2.22;;
23472;SDS011;11909;52.516;13.564;2024-01-15T10:39:15;5.95;;;2.00;;
23472;SDS011;11909;52.516;13.564;2024-01-15T10:41:43;4.25;;;1.50;;
23472;SDS011;11909;52.516;13.564;2024-01-15T10:44:11;6.30;;;2.22;;
23472;SDS011;11909;52.516;13.564;2024-01-15T10:46:39;6.60;;;2.42;;
23472;SDS011;11909;52.516;13.564;2024-01-15T10:49:08;5.60;;;2.85;;
23472;SDS011;11909;52.516;13.564;2024-01-15T10:51:37;8.77;;;2.03;;
23472;SDS011;11909;52.516;13.564;2024-01-15T10:54:05;7.35;;;2.30;;
23472;SDS011;11909;52.516;13.564;2024-01-15T10:56:39;10.60;;;1.80;;
23472;SDS011;11909;52.516;13.564;2024-01-15T10:59:07;9.20;;;2.33;;
23472;SDS011;11909;52.516;13.564;2024-01-15T11:01:37;5.10;;;1.77;;
23472;SDS011;11909;52.516;13.564;2024-01-15T11:04:06;6.43;;;1.70;;
23472;SDS011;11909;52.516;13.564;2024-01-15T11:06:41;5.50;;;1.90;;
23472;SDS011;11909;52.516;13.564;2024-01-15T11:09:11;9.88;;;2.42;;
23472;SDS011;11909;52.516;13.564;2024-01-15T11:11:42;2.90;;;1.80;;
23472;SDS011;11909;52.516;13.564;2024-01-15T11:17:00;7.00;;;1.75;;
23472;SDS011;11909;52.516;13.564;2024-01-15T11:19:35;3.50;;;1.48;;
23472;SDS011;11909;52.516;13.564;2024-01-15T11:22:04;6.78;;;1.60;;
23472;SDS011;11909;52.516;13.564;2024-01-15T11:24:33;2.85;;;1.63;;
23472;SDS011;11909;52.516;13.564;2024-01-15T11:27:07;5.15;;;1.85;;
23472;SDS011;11909;52.516;13.564;2024-01-15T11:29:36;3.58;;;1.50;;
23472;SDS011;11909;52.516;13.564;2024-01-15T11:32:04;1.73;;;1.15;;
23472;SDS011;11909;52.516;13.564;2024-01-15T11:34:52;4.63;;;1.30;;
23472;SDS011;11909;52.516;13.564;2024-01-15T11:37:26;3.22;;;1.70;;
23472;SDS011;11909;52.516;13.564;2024-01-15T11:39:55;3.88;;;1.75;;
23472;SDS011;11909;52.516;13.564;2024-01-15T11:42:24;2.38;;;1.58;;
23472;SDS011;11909;52.516;13.564;2024-01-15T11:44:54;3.15;;;1.67;;
23472;SDS011;11909;52.516;13.564;2024-01-15T11:47:30;3.65;;;1.65;;
23472;SDS011;11909;52.516;13.564;2024-01-15T11:50:34;4.53;;;1.55;;
23472;SDS011;11909;52.516;13.564;2024-01-15T11:53:03;5.35;;;1.55;;
23472;SDS011;11909;52.516;13.564;2024-01-15T11:55:53;4.63;;;1.30;;
23472;SDS011;11909;52.516;13.564;2024-01-15T11:58:27;5.28;;;1.60;;
23472;SDS011;11909;52.516;13.564;2024-01-15T12:00:55;6.73;;;1.57;;
23472;SDS011;11909;52.516;13.564;2024-01-15T12:03:23;2.85;;;1.52;;
23472;SDS011;11909;52.516;13.564;2024-01-15T12:05:52;3.05;;;2.00;;
23472;SDS011;11909;52.516;13.564;2024-01-15T12:08:21;4.00;;;2.53;;
23472;SDS011;11909;52.516;13.564;2024-01-15T12:10:50;4.30;;;2.22;;
23472;SDS011;11909;52.516;13.564;2024-01-15T12:13:18;3.60;;;1.90;;
23472;SDS011;11909;52.516;13.564;2024-01-15T12:15:49;4.32;;;1.98;;
23472;SDS011;11909;52.516;13.564;2024-01-15T12:18:17;4.72;;;2.45;;
23472;SDS011;11909;52.516;13.564;2024-01-15T12:20:46;4.07;;;2.10;;
23472;SDS011;11909;52.516;13.564;2024-01-15T12:23:16;2.63;;;2.03;;
23472;SDS011;11909;52.516;13.564;2024-01-15T12:25:44;3.05;;;1.70;;
23472;SDS011;11909;52.516;13.564;2024-01-15T12:28:12;4.28;;;1.70;;
23472;SDS011;11909;52.516;13.564;2024-01-15T12:30:40;4.60;;;1.83;;
23472;SDS011;11909;52.516;13.564;2024-01-15T12:33:10;2.30;;;1.80;;
23472;SDS011;11909;52.516;13.564;2024-01-15T12:35:38;3.97;;;1.92;;
23472;SDS011;11909;52.516;13.564;2024-01-15T12:38:06;4.50;;;2.42;;
23472;SDS011;11909;52.516;13.564;2024-01-15T12:40:33;2.70;;;1.90;;
23472;SDS011;11909;52.516;13.564;2024-01-15T12:43:03;3.58;;;2.00;;
23472;SDS011;11909;52.516;13.564;2024-01-15T12:45:33;4.03;;;1.85;;
23472;SDS011;11909;52.516;13.564;2024-01-15T12:48:02;4.25;;;1.90;;
23472;SDS011;11909;52.516;13.564;2024-01-15T12:50:32;3.88;;;1.88;;
23472;SDS011;11909;52.516;13.564;2024-01-15T12:53:01;3.10;;;1.80;;
23472;SDS011;11909;52.516;13.564;2024-01-15T12:55:29;2.45;;;1.70;;
23472;SDS011;11909;52.516;13.564;2024-01-15T12:57:56;3.70;;;2.00;;
23472;SDS011;11909;52.516;13.564;2024-01-15T13:00:25;2.17;;;1.52;;
23472;SDS011;11909;52.516;13.564;2024-01-15T13:02:53;2.83;;;1.85;;
23472;SDS011;11909;52.516;13.564;2024-01-15T13:05:22;1.63;;;1.38;;
23472;SDS011;11909;52.516;13.564;2024-01-15T13:07:52;2.15;;;1.65;;
23472;SDS011;11909;52.516;13.564;2024-01-15T13:10:20;3.13;;;1.67;;
23472;SDS011;11909;52.516;13.564;2024-01-15T13:12:51;2.33;;;1.42;;
23472;SDS011;11909;52.516;13.564;2024-01-15T13:15:20;2.85;;;1.75;;
23472;SDS011;11909;52.516;13.564;2024-01-15T13:17:47;3.95;;;1.80;;
23472;SDS011;11909;52.516;13.564;2024-01-15T13:20:15;4.60;;;1.83;;
23472;SDS011;11909;52.516;13.564;2024-01-15T13:22:43;2.17;;;1.52;;
23472;SDS011;11909;52.516;13.564;2024-01-15T13:25:13;1.55;;;1.40;;
23472;SDS011;11909;52.516;13.564;2024-01-15T13:30:11;3.85;;;1.50;;
23472;SDS011;11909;52.516;13.564;2024-01-15T13:32:40;1.88;;;1.63;;
23472;SDS011;11909;52.516;13.564;2024-01-15T13:35:08;4.40;;;1.60;;
23472;SDS011;11909;52.516;13.564;2024-01-15T13:37:40;3.70;;;1.40;;
23472;SDS011;11909;52.516;13.564;2024-01-15T13:40:09;2.97;;;2.38;;
23472;SDS011;11909;52.516;13.564;2024-01-15T13:42:45;1.60;;;1.40;;
23472;SDS011;11909;52.516;13.564;2024-01-15T13:45:13;3.40;;;1.52;;
23472;SDS011;11909;52.516;13.564;2024-01-15T13:47:42;2.25;;;1.73;;
23472;SDS011;11909;52.516;13.564;2024-01-15T13:50:11;3.08;;;1.67;;
23472;SDS011;11909;52.516;13.564;2024-01-15T13:52:39;2.00;;;1.45;;
23472;SDS011;11909;52.516;13.564;2024-01-15T13:55:07;2.60;;;1.83;;
23472;SDS011;11909;52.516;13.564;2024-01-15T13:57:36;2.60;;;1.58;;
23472;SDS011;11909;52.516;13.564;2024-01-15T14:00:06;3.88;;;1.63;;
23472;SDS011;11909;52.516;13.564;2024-01-15T14:02:39;3.88;;;2.10;;
23472;SDS011;11909;52.516;13.564;2024-01-15T14:05:07;5.63;;;2.00;;
23472;SDS011;11909;52.516;13.564;2024-01-15T14:07:35;3.85;;;1.98;;
23472;SDS011;11909;52.516;13.564;2024-01-15T14:10:03;3.10;;;1.85;;
23472;SDS011;11909;52.516;13.564;2024-01-15T14:12:31;5.72;;;1.60;;
23472;SDS011;11909;52.516;13.564;2024-01-15T14:14:59;2.58;;;1.88;;
23472;SDS011;11909;52.516;13.564;2024-01-15T14:17:29;3.25;;;1.90;;
23472;SDS011;11909;52.516;13.564;2024-01-15T14:19:57;5.88;;;1.75;;
23472;SDS011;11909;52.516;13.564;2024-01-15T14:22:25;3.17;;;1.70;;
23472;SDS011;11909;52.516;13.564;2024-01-15T14:24:53;2.72;;;1.58;;
23472;SDS011;11909;52.516;13.564;2024-01-15T14:27:20;5.82;;;1.77;;
23472;SDS011;11909;52.516;13.564;2024-01-15T14:29:49;3.20;;;1.50;;
23472;SDS011;11909;52.516;13.564;2024-01-15T14:32:17;3.50;;;1.80;;
23472;SDS011;11909;52.516;13.564;2024-01-15T14:34:46;5.25;;;1.70;;
23472;SDS011;11909;52.516;13.564;2024-01-15T14:37:14;8.80;;;2.20;;
23472;SDS011;11909;52.516;13.564;2024-01-15T14:39:42;6.60;;;1.85;;
23472;SDS011;11909;52.516;13.564;2024-01-15T14:42:10;4.15;;;1.80;;
23472;SDS011;11909;52.516;13.564;2024-01-15T14:44:38;3.63;;;1.48;;